createdAt,value
2023-03-19T00:00:09.870Z,51.96
2023-03-19T00:00:55.204Z,50.96
2023-03-19T00:01:40.186Z,49.96
2023-03-19T00:02:25.063Z,51.96
2023-03-19T00:03:10.178Z,51.96
2023-03-19T00:03:55.050Z,52.96
2023-03-19T00:04:40.208Z,51.96
2023-03-19T00:05:25.524Z,51.96
2023-03-19T00:06:10.434Z,51.96
2023-03-19T00:06:55.375Z,50.96
2023-03-19T00:07:40.006Z,50.96
2023-03-19T00:08:25.290Z,50.96
2023-03-19T00:09:10.976Z,50.96
2023-03-19T00:09:55.504Z,51.96
2023-03-19T00:10:41.135Z,51.96
2023-03-19T00:11:25.718Z,49.96
2023-03-19T00:12:10.806Z,51.96
2023-03-19T00:12:55.640Z,52.96
2023-03-19T00:13:41.548Z,51.96
2023-03-19T00:14:25.975Z,52.96
2023-03-19T00:15:10.894Z,51.96
2023-03-19T00:15:55.646Z,51.95
2023-03-19T00:16:41.527Z,50.96
2023-03-19T00:17:26.298Z,51.96
2023-03-19T00:18:11.452Z,51.96
2023-03-19T00:18:56.078Z,50.96
2023-03-19T00:19:41.490Z,51.96
2023-03-19T00:20:27.102Z,50.96
2023-03-19T00:21:11.262Z,51.96
2023-03-19T00:21:56.657Z,51.96
2023-03-19T00:22:41.752Z,51.96
2023-03-19T00:23:26.643Z,51.96
2023-03-19T00:24:11.678Z,51.96
2023-03-19T00:24:56.748Z,50.96
2023-03-19T00:25:42.180Z,51.96
2023-03-19T00:26:26.764Z,52.96
2023-03-19T00:27:11.730Z,51.95
2023-03-19T00:27:56.863Z,51.96
2023-03-19T00:28:41.819Z,51.96
2023-03-19T00:29:27.177Z,52.96
2023-03-19T00:30:12.057Z,52.96
2023-03-19T00:30:57.241Z,51.96
2023-03-19T00:31:42.364Z,51.96
2023-03-19T00:32:27.467Z,51.96
2023-03-19T00:33:12.276Z,51.96
2023-03-19T00:33:57.494Z,51.96
2023-03-19T00:34:42.611Z,51.96
2023-03-19T00:35:27.916Z,50.96
2023-03-19T00:36:12.550Z,51.96
2023-03-19T00:36:58.157Z,51.96
2023-03-19T00:37:42.692Z,51.96
2023-03-19T00:38:27.839Z,50.96
2023-03-19T00:39:12.807Z,49.96
2023-03-19T00:39:57.972Z,49.96
2023-03-19T00:40:42.709Z,50.96
2023-03-19T00:41:27.876Z,50.96
2023-03-19T00:42:12.844Z,51.96
2023-03-19T00:42:58.355Z,51.96
2023-03-19T00:43:43.247Z,52.96
2023-03-19T00:44:28.289Z,52.96
2023-03-19T00:45:13.259Z,52.96
2023-03-19T00:45:58.275Z,52.96
2023-03-19T00:46:42.931Z,52.96
2023-03-19T00:47:28.528Z,51.96
2023-03-19T00:48:13.634Z,50.96
2023-03-19T00:48:58.363Z,50.96
2023-03-19T00:49:43.599Z,50.96
2023-03-19T00:50:29.611Z,50.96
2023-03-19T00:51:14.000Z,51.96
2023-03-19T00:51:58.990Z,49.96
2023-03-19T00:52:44.241Z,49.96
2023-03-19T00:53:28.987Z,47.96
2023-03-19T00:54:14.032Z,49.96
2023-03-19T00:54:58.987Z,49.95
2023-03-19T00:55:44.310Z,47.96
2023-03-19T00:56:29.058Z,45.95
2023-03-19T00:57:14.357Z,46.97
2023-03-19T00:57:58.751Z,46.97
2023-03-19T00:58:44.270Z,46.97
2023-03-19T00:59:29.406Z,47.96
2023-03-19T01:00:59.074Z,46.97
2023-03-19T01:01:44.287Z,45.97
2023-03-19T01:02:29.246Z,45.97
2023-03-19T01:03:14.097Z,47.95
2023-03-19T01:03:59.291Z,45.97
2023-03-19T01:04:44.590Z,44.97
2023-03-19T01:05:29.775Z,45.97
2023-03-19T01:06:14.321Z,45.95
2023-03-19T01:07:44.361Z,50.96
2023-03-19T01:08:29.829Z,50.95
2023-03-19T01:09:14.647Z,53.96
2023-03-19T01:09:59.912Z,56.94
2023-03-19T01:10:44.865Z,59.96
2023-03-19T01:11:29.856Z,60.96
2023-03-19T01:12:15.297Z,59.96
2023-03-19T01:12:59.879Z,59.96
2023-03-19T01:13:45.431Z,59.96
2023-03-19T01:14:30.120Z,58.96
2023-03-19T01:15:15.007Z,60.94
2023-03-19T01:16:00.795Z,58.96
2023-03-19T01:16:45.382Z,59.96
2023-03-19T01:17:30.074Z,60.96
2023-03-19T01:18:15.038Z,60.96
2023-03-19T01:19:00.145Z,60.96
2023-03-19T01:19:45.451Z,60.96
2023-03-19T01:20:30.674Z,59.96
2023-03-19T01:21:14.948Z,60.96
2023-03-19T01:22:00.433Z,57.94
2023-03-19T01:22:45.567Z,60.96
2023-03-19T01:23:30.310Z,59.94
2023-03-19T01:24:15.744Z,59.96
2023-03-19T01:25:00.535Z,60.96
2023-03-19T01:25:45.794Z,59.96
2023-03-19T01:26:30.438Z,57.96
2023-03-19T01:27:15.720Z,60.96
2023-03-19T01:28:00.920Z,60.96
2023-03-19T01:28:46.642Z,59.96
2023-03-19T01:29:30.768Z,60.96
2023-03-19T01:30:15.944Z,60.96
2023-03-19T01:31:01.295Z,60.96
2023-03-19T01:31:46.067Z,60.96
2023-03-19T01:32:31.313Z,60.96
2023-03-19T01:33:16.254Z,59.96
2023-03-19T01:34:01.124Z,61.95
2023-03-19T01:34:46.440Z,60.96
2023-03-19T01:35:31.537Z,61.95
2023-03-19T01:36:16.384Z,60.96
2023-03-19T01:37:01.128Z,60.96
2023-03-19T01:37:46.508Z,59.96
2023-03-19T01:38:31.663Z,60.96
2023-03-19T01:39:16.495Z,59.96
2023-03-19T01:40:01.672Z,58.96
2023-03-19T01:40:47.161Z,60.96
2023-03-19T01:41:32.071Z,59.96
2023-03-19T01:42:16.993Z,60.96
2023-03-19T01:43:02.089Z,60.96
2023-03-19T01:43:47.842Z,60.94
2023-03-19T01:44:32.501Z,60.96
2023-03-19T01:45:17.261Z,60.96
2023-03-19T01:46:02.428Z,61.95
2023-03-19T01:46:47.437Z,60.96
2023-03-19T01:47:32.313Z,57.96
2023-03-19T01:48:17.241Z,60.96
2023-03-19T01:49:02.503Z,59.96
2023-03-19T01:49:48.432Z,60.96
2023-03-19T01:50:32.597Z,60.94
2023-03-19T01:51:17.639Z,61.95
2023-03-19T01:52:02.695Z,59.96
2023-03-19T01:52:47.977Z,61.95
2023-03-19T01:53:33.038Z,59.96
2023-03-19T01:54:17.586Z,61.95
2023-03-19T01:55:03.023Z,59.96
2023-03-19T01:55:47.984Z,59.96
2023-03-19T01:56:33.624Z,58.96
2023-03-19T01:57:18.053Z,59.96
2023-03-19T01:58:03.013Z,60.96
2023-03-19T01:58:48.064Z,60.96
2023-03-19T01:59:33.440Z,60.96
2023-03-19T02:00:18.436Z,61.93
2023-03-19T02:01:03.258Z,59.96
2023-03-19T02:01:48.736Z,59.96
2023-03-19T02:02:33.646Z,60.96
2023-03-19T02:03:19.062Z,61.93
2023-03-19T02:04:03.492Z,59.96
2023-03-19T02:04:48.677Z,60.96
2023-03-19T02:05:33.570Z,58.96
2023-03-19T02:06:18.864Z,59.96
2023-03-19T02:07:03.989Z,57.96
2023-03-19T02:07:49.092Z,59.96
2023-03-19T02:08:34.027Z,58.94
2023-03-19T02:09:18.797Z,59.96
2023-03-19T02:10:03.809Z,58.96
2023-03-19T02:10:49.065Z,60.96
2023-03-19T02:11:34.380Z,59.94
2023-03-19T02:12:18.991Z,59.96
2023-03-19T02:13:04.156Z,57.96
2023-03-19T02:13:48.980Z,58.96
2023-03-19T02:14:34.452Z,58.96
2023-03-19T02:15:19.402Z,57.96
2023-03-19T02:16:04.156Z,56.96
2023-03-19T02:16:49.384Z,59.96
2023-03-19T02:17:34.167Z,56.96
2023-03-19T02:18:19.606Z,59.96
2023-03-19T02:19:04.274Z,55.96
2023-03-19T02:19:49.406Z,59.96
2023-03-19T02:20:34.911Z,59.96
2023-03-19T02:21:20.068Z,59.96
2023-03-19T02:22:04.514Z,59.96
2023-03-19T02:22:49.863Z,59.96
2023-03-19T02:23:34.864Z,60.94
2023-03-19T02:24:19.728Z,60.96
2023-03-19T02:25:04.899Z,61.95
2023-03-19T02:25:49.792Z,61.95
2023-03-19T02:26:35.118Z,60.96
2023-03-19T02:27:20.219Z,61.95
2023-03-19T02:28:05.057Z,59.94
2023-03-19T02:28:50.022Z,60.96
2023-03-19T02:29:35.499Z,60.96
2023-03-19T02:30:20.595Z,60.96
2023-03-19T02:31:05.403Z,60.96
2023-03-19T02:31:50.302Z,59.96
2023-03-19T02:32:35.642Z,59.96
2023-03-19T02:33:20.630Z,59.96
2023-03-19T02:34:05.243Z,60.96
2023-03-19T02:34:50.562Z,59.96
2023-03-19T02:35:35.758Z,56.94
2023-03-19T02:36:20.743Z,58.96
2023-03-19T02:37:05.725Z,56.96
2023-03-19T02:37:51.089Z,59.96
2023-03-19T02:38:35.940Z,58.96
2023-03-19T02:39:21.010Z,58.96
2023-03-19T02:40:06.078Z,56.96
2023-03-19T02:40:50.913Z,57.96
2023-03-19T02:41:36.293Z,58.96
2023-03-19T02:42:21.256Z,58.96
2023-03-19T02:43:06.051Z,55.96
2023-03-19T02:43:51.474Z,55.96
2023-03-19T02:44:36.705Z,58.96
2023-03-19T02:45:21.899Z,57.96
2023-03-19T02:46:06.780Z,54.96
2023-03-19T02:46:51.574Z,56.96
2023-03-19T02:47:36.979Z,56.96
2023-03-19T02:48:21.579Z,56.96
2023-03-19T02:49:06.541Z,56.96
2023-03-19T02:49:51.450Z,57.96
2023-03-19T02:50:37.465Z,57.96
2023-03-19T02:51:21.801Z,59.96
2023-03-19T02:52:06.759Z,58.94
2023-03-19T02:52:51.914Z,58.96
2023-03-19T02:53:36.876Z,60.94
2023-03-19T02:54:21.542Z,59.96
2023-03-19T02:55:06.839Z,60.96
2023-03-19T02:55:52.183Z,58.96
2023-03-19T02:56:37.027Z,60.94
2023-03-19T02:57:22.212Z,60.96
2023-03-19T02:58:07.001Z,59.96
2023-03-19T02:58:52.215Z,59.96
2023-03-19T02:59:37.014Z,57.96
2023-03-19T03:00:22.270Z,59.96
2023-03-19T03:01:07.203Z,59.96
2023-03-19T03:01:52.292Z,59.96
2023-03-19T03:02:37.425Z,59.94
2023-03-19T03:03:22.819Z,58.96
2023-03-19T03:04:07.760Z,58.96
2023-03-19T03:04:52.500Z,58.96
2023-03-19T03:05:37.849Z,58.96
2023-03-19T03:06:22.811Z,60.96
2023-03-19T03:07:08.408Z,60.94
2023-03-19T03:07:52.843Z,59.94
2023-03-19T03:08:37.673Z,59.94
2023-03-19T03:09:22.830Z,58.96
2023-03-19T03:10:09.299Z,58.96
2023-03-19T03:10:53.090Z,59.96
2023-03-19T03:11:38.026Z,58.96
2023-03-19T03:12:22.986Z,60.96
2023-03-19T03:13:08.252Z,60.96
2023-03-19T03:13:53.093Z,60.96
2023-03-19T03:14:38.244Z,59.94
2023-03-19T03:15:24.228Z,58.96
2023-03-19T03:16:08.498Z,58.96
2023-03-19T03:16:53.419Z,59.94
2023-03-19T03:17:38.281Z,59.96
2023-03-19T03:18:23.638Z,59.96
2023-03-19T03:19:08.556Z,58.96
2023-03-19T03:19:53.864Z,57.96
2023-03-19T03:20:38.910Z,60.96
2023-03-19T03:21:23.756Z,60.96
2023-03-19T03:22:08.708Z,61.95
2023-03-19T03:22:53.836Z,61.95
2023-03-19T03:23:39.028Z,59.96
2023-03-19T03:24:24.157Z,61.93
2023-03-19T03:25:09.064Z,59.94
2023-03-19T03:25:54.220Z,60.96
2023-03-19T03:26:38.868Z,62.95
2023-03-19T03:27:23.904Z,60.96
2023-03-19T03:28:08.971Z,61.95
2023-03-19T03:28:54.223Z,64.95
2023-03-19T03:29:39.237Z,61.95
2023-03-19T03:30:24.758Z,60.96
2023-03-19T03:31:09.238Z,60.96
2023-03-19T03:31:54.590Z,61.95
2023-03-19T03:32:39.125Z,61.95
2023-03-19T03:33:24.326Z,61.95
2023-03-19T03:34:09.812Z,61.95
2023-03-19T03:34:54.361Z,61.95
2023-03-19T03:35:39.884Z,63.95
2023-03-19T03:36:24.298Z,61.95
2023-03-19T03:37:09.909Z,62.95
2023-03-19T03:37:54.691Z,62.95
2023-03-19T03:38:39.544Z,62.95
2023-03-19T03:39:24.876Z,62.95
2023-03-19T03:40:09.895Z,60.96
2023-03-19T03:40:55.069Z,61.95
2023-03-19T03:41:40.997Z,61.95
2023-03-19T03:42:25.135Z,60.96
2023-03-19T03:43:09.981Z,60.96
2023-03-19T03:43:55.449Z,61.95
2023-03-19T03:44:40.691Z,62.95
2023-03-19T03:45:26.199Z,62.93
2023-03-19T03:46:10.471Z,61.95
2023-03-19T03:46:55.471Z,63.93
2023-03-19T03:47:40.926Z,60.96
2023-03-19T03:48:25.584Z,60.96
2023-03-19T03:49:10.951Z,62.95
2023-03-19T03:49:55.924Z,61.95
2023-03-19T03:50:41.033Z,64.95
2023-03-19T03:51:25.713Z,65.95
2023-03-19T03:52:11.181Z,65.95
2023-03-19T03:52:56.258Z,65.95
2023-03-19T03:53:41.518Z,64.95
2023-03-19T03:54:26.154Z,64.95
2023-03-19T03:55:11.440Z,64.95
2023-03-19T03:55:56.262Z,63.95
2023-03-19T03:56:41.557Z,63.95
2023-03-19T03:57:26.572Z,63.95
2023-03-19T03:58:11.784Z,63.95
2023-03-19T03:58:56.606Z,62.95
2023-03-19T03:59:41.859Z,62.93
2023-03-19T04:00:26.900Z,60.96
2023-03-19T04:01:12.271Z,58.96
2023-03-19T04:01:56.978Z,59.96
2023-03-19T04:02:41.931Z,60.96
2023-03-19T04:03:27.105Z,59.96
2023-03-19T04:04:11.962Z,58.96
2023-03-19T04:04:57.602Z,58.96
2023-03-19T04:05:42.098Z,59.96
2023-03-19T04:06:26.861Z,59.96
2023-03-19T04:07:11.992Z,59.96
2023-03-19T04:07:57.183Z,59.94
2023-03-19T04:08:42.219Z,57.96
2023-03-19T04:09:27.345Z,57.94
2023-03-19T04:10:12.776Z,57.94
2023-03-19T04:10:57.593Z,58.96
2023-03-19T04:11:42.854Z,59.96
2023-03-19T04:12:27.460Z,60.94
2023-03-19T04:13:12.669Z,59.96
2023-03-19T04:13:57.639Z,59.96
2023-03-19T04:14:42.788Z,60.96
2023-03-19T04:15:28.600Z,59.96
2023-03-19T04:16:12.795Z,59.96
2023-03-19T04:16:57.998Z,60.96
2023-03-19T04:17:43.097Z,60.96
2023-03-19T04:18:27.947Z,61.95
2023-03-19T04:19:12.900Z,60.94
2023-03-19T04:19:57.959Z,62.95
2023-03-19T04:20:43.533Z,62.95
2023-03-19T04:21:28.276Z,60.96
2023-03-19T04:22:13.226Z,60.94
2023-03-19T04:22:58.077Z,60.96
2023-03-19T04:23:43.672Z,58.94
2023-03-19T04:24:28.771Z,58.96
2023-03-19T04:25:13.451Z,59.96
2023-03-19T04:25:58.508Z,58.96
2023-03-19T04:26:44.126Z,59.96
2023-03-19T04:27:28.880Z,59.96
2023-03-19T04:28:14.461Z,60.96
2023-03-19T04:28:58.866Z,60.96
2023-03-19T04:29:43.944Z,59.96
2023-03-19T04:30:28.930Z,60.94
2023-03-19T04:31:14.268Z,60.96
2023-03-19T04:31:59.233Z,61.95
2023-03-19T04:32:43.990Z,60.96
2023-03-19T04:33:29.488Z,59.96
2023-03-19T04:34:14.235Z,59.96
2023-03-19T04:34:59.252Z,58.96
2023-03-19T04:35:44.272Z,56.94
2023-03-19T04:36:29.506Z,57.96
2023-03-19T04:37:14.178Z,56.96
2023-03-19T04:37:59.511Z,56.96
2023-03-19T04:38:45.001Z,56.96
2023-03-19T04:39:29.223Z,58.96
2023-03-19T04:40:15.772Z,58.96
2023-03-19T04:40:59.959Z,58.96
2023-03-19T04:41:45.324Z,58.96
2023-03-19T04:42:29.777Z,58.96
2023-03-19T04:43:15.450Z,58.96
2023-03-19T04:43:59.778Z,58.96
2023-03-19T04:44:44.915Z,57.96
2023-03-19T04:45:30.077Z,57.96
2023-03-19T04:46:15.167Z,59.96
2023-03-19T04:47:00.187Z,59.96
2023-03-19T04:47:45.353Z,58.96
2023-03-19T04:48:31.224Z,58.96
2023-03-19T04:49:15.298Z,57.96
2023-03-19T04:50:00.444Z,56.96
2023-03-19T04:50:45.270Z,56.96
2023-03-19T04:51:30.524Z,56.96
2023-03-19T04:52:15.815Z,56.96
2023-03-19T04:53:01.455Z,56.96
2023-03-19T04:53:45.910Z,56.96
2023-03-19T04:54:31.128Z,56.96
2023-03-19T04:55:16.075Z,56.96
2023-03-19T04:56:01.972Z,56.96
2023-03-19T04:56:46.166Z,56.96
2023-03-19T04:57:30.933Z,17.80
2023-03-19T04:58:16.146Z,17.80
2023-03-19T04:59:00.884Z,17.80
2023-03-19T04:59:48.566Z,17.80
2023-03-19T05:00:31.136Z,36.35
2023-03-19T05:01:16.731Z,36.35
2023-03-19T05:02:01.192Z,36.35
2023-03-19T05:02:46.495Z,36.35
2023-03-19T05:03:31.055Z,57.96
2023-03-19T05:04:16.516Z,57.96
2023-03-19T05:05:01.644Z,57.96
2023-03-19T05:05:46.922Z,57.96
2023-03-19T05:06:31.785Z,57.96
2023-03-19T05:07:16.520Z,57.96
2023-03-19T05:08:01.901Z,57.96
2023-03-19T05:08:46.925Z,57.96
2023-03-19T05:09:31.689Z,57.96
2023-03-19T05:10:17.054Z,57.96
2023-03-19T05:11:02.046Z,57.96
2023-03-19T05:11:47.230Z,57.96
2023-03-19T05:12:32.199Z,57.96
2023-03-19T05:13:16.958Z,57.96
2023-03-19T05:14:02.575Z,57.96
2023-03-19T05:14:47.442Z,57.96
2023-03-19T05:15:32.618Z,57.96
2023-03-19T05:16:17.350Z,57.96
2023-03-19T05:17:02.452Z,57.96
2023-03-19T05:17:47.719Z,57.96
2023-03-19T05:18:32.520Z,57.96
2023-03-19T05:19:17.425Z,54.97
2023-03-19T05:20:03.159Z,53.97
2023-03-19T05:20:47.317Z,53.96
2023-03-19T05:21:32.153Z,52.96
2023-03-19T05:22:17.854Z,52.96
2023-03-19T05:23:02.484Z,55.97
2023-03-19T05:23:47.847Z,53.96
2023-03-19T05:24:32.950Z,51.96
2023-03-19T05:25:18.440Z,51.96
2023-03-19T05:26:02.627Z,52.96
2023-03-19T05:26:47.807Z,52.97
2023-03-19T05:27:32.830Z,52.97
2023-03-19T05:28:18.086Z,52.97
2023-03-19T05:29:03.143Z,52.97
2023-03-19T05:29:48.306Z,52.97
2023-03-19T05:30:33.776Z,52.97
2023-03-19T05:31:19.074Z,52.97
2023-03-19T05:32:03.392Z,52.97
2023-03-19T05:32:48.172Z,53.97
2023-03-19T05:33:33.243Z,54.97
2023-03-19T05:34:18.233Z,54.97
2023-03-19T05:35:03.324Z,54.97
2023-03-19T05:35:48.907Z,54.97
2023-03-19T05:36:33.661Z,53.97
2023-03-19T05:37:18.275Z,54.97
2023-03-19T05:38:03.431Z,54.97
2023-03-19T05:38:48.597Z,53.97
2023-03-19T05:39:33.717Z,54.97
2023-03-19T05:40:18.855Z,55.97
2023-03-19T05:41:03.409Z,53.97
2023-03-19T05:41:48.799Z,54.97
2023-03-19T05:42:33.647Z,54.97
2023-03-19T05:43:19.323Z,55.97
2023-03-19T05:44:03.962Z,55.97
2023-03-19T05:44:48.813Z,55.97
2023-03-19T05:45:33.877Z,54.95
2023-03-19T05:46:18.766Z,54.97
2023-03-19T05:47:03.747Z,54.97
2023-03-19T05:47:49.146Z,57.96
2023-03-19T05:48:34.210Z,59.96
2023-03-19T05:49:19.163Z,59.96
2023-03-19T05:50:03.913Z,58.96
2023-03-19T05:50:49.249Z,60.96
2023-03-19T05:51:34.422Z,59.96
2023-03-19T05:52:19.313Z,59.96
2023-03-19T05:53:04.210Z,59.96
2023-03-19T05:53:49.133Z,58.96
2023-03-19T05:54:34.627Z,59.96
2023-03-19T05:55:19.976Z,59.96
2023-03-19T05:56:04.484Z,59.96
2023-03-19T05:56:49.453Z,59.96
2023-03-19T05:57:34.568Z,58.96
2023-03-19T05:58:19.436Z,57.94
2023-03-19T05:59:04.892Z,58.96
2023-03-19T05:59:49.631Z,58.96
2023-03-19T06:00:34.913Z,57.96
2023-03-19T06:01:19.788Z,59.94
2023-03-19T06:02:05.350Z,59.96
2023-03-19T06:02:50.055Z,58.96
2023-03-19T06:03:35.032Z,59.96
2023-03-19T06:04:19.923Z,59.96
2023-03-19T06:05:05.242Z,59.96
2023-03-19T06:05:50.189Z,58.94
2023-03-19T06:06:35.170Z,56.97
2023-03-19T06:07:20.305Z,58.96
2023-03-19T06:08:05.483Z,60.96
2023-03-19T06:08:50.226Z,60.96
2023-03-19T06:09:35.267Z,55.97
2023-03-19T06:10:21.040Z,57.96
2023-03-19T06:11:05.490Z,58.96
2023-03-19T06:11:50.551Z,58.96
2023-03-19T06:12:35.466Z,57.96
2023-03-19T06:13:20.459Z,59.96
2023-03-19T06:14:05.618Z,57.96
2023-03-19T06:14:50.594Z,58.96
2023-03-19T06:15:36.084Z,58.96
2023-03-19T06:16:20.754Z,57.96
2023-03-19T06:17:05.647Z,57.96
2023-03-19T06:17:50.688Z,55.97
2023-03-19T06:18:35.938Z,56.94
2023-03-19T06:19:20.917Z,55.97
2023-03-19T06:20:05.593Z,56.97
2023-03-19T06:20:50.719Z,57.96
2023-03-19T06:21:36.504Z,57.96
2023-03-19T06:22:21.121Z,56.97
2023-03-19T06:23:06.179Z,58.94
2023-03-19T06:23:51.092Z,58.96
2023-03-19T06:24:36.392Z,59.96
2023-03-19T06:25:21.089Z,59.96
2023-03-19T06:26:06.291Z,58.96
2023-03-19T06:26:51.431Z,58.96
2023-03-19T06:27:36.436Z,59.96
2023-03-19T06:28:21.365Z,57.96
2023-03-19T06:29:06.317Z,55.97
2023-03-19T06:29:51.777Z,57.96
2023-03-19T06:30:36.752Z,57.96
2023-03-19T06:31:21.441Z,56.97
2023-03-19T06:32:06.850Z,56.97
2023-03-19T06:32:51.989Z,59.96
2023-03-19T06:33:37.308Z,57.96
2023-03-19T06:34:21.615Z,56.97
2023-03-19T06:35:06.968Z,55.97
2023-03-19T06:35:52.061Z,55.97
2023-03-19T06:36:37.068Z,54.96
2023-03-19T06:37:22.069Z,55.96
2023-03-19T06:38:06.759Z,54.96
2023-03-19T06:38:52.119Z,55.97
2023-03-19T06:39:37.702Z,55.96
2023-03-19T06:40:23.016Z,54.96
2023-03-19T06:41:07.442Z,54.96
2023-03-19T06:41:52.785Z,55.96
2023-03-19T06:42:37.402Z,54.96
2023-03-19T06:43:22.807Z,53.96
2023-03-19T06:44:07.624Z,52.96
2023-03-19T06:44:53.638Z,53.96
2023-03-19T06:45:38.027Z,53.96
2023-03-19T06:46:22.963Z,53.96
2023-03-19T06:47:08.295Z,53.96
2023-03-19T06:47:53.604Z,56.97
2023-03-19T06:48:38.001Z,56.96
2023-03-19T06:49:23.090Z,55.96
2023-03-19T06:50:08.537Z,55.96
2023-03-19T06:50:53.207Z,55.96
2023-03-19T06:51:38.128Z,55.94
2023-03-19T06:52:23.301Z,57.96
2023-03-19T06:53:08.505Z,54.96
2023-03-19T06:53:53.294Z,55.96
2023-03-19T06:54:38.502Z,54.94
2023-03-19T06:55:24.793Z,53.96
2023-03-19T06:56:08.879Z,54.96
2023-03-19T06:56:53.378Z,53.96
2023-03-19T06:57:38.674Z,53.96
2023-03-19T06:58:23.984Z,53.96
2023-03-19T06:59:08.790Z,54.96
2023-03-19T06:59:54.152Z,54.96
2023-03-19T07:00:39.371Z,51.96
2023-03-19T07:01:24.105Z,51.96
2023-03-19T07:02:10.029Z,51.96
2023-03-19T07:02:54.079Z,52.96
2023-03-19T07:03:39.347Z,54.96
2023-03-19T07:04:24.320Z,54.96
2023-03-19T07:05:09.398Z,54.96
2023-03-19T07:05:54.371Z,54.96
2023-03-19T07:06:39.824Z,53.96
2023-03-19T07:07:24.539Z,54.96
2023-03-19T07:08:09.266Z,53.96
2023-03-19T07:08:54.726Z,54.96
2023-03-19T07:09:39.579Z,53.96
2023-03-19T07:10:25.938Z,53.96
2023-03-19T07:11:09.596Z,54.94
2023-03-19T07:11:54.742Z,54.96
2023-03-19T07:12:39.695Z,54.96
2023-03-19T07:13:25.122Z,55.96
2023-03-19T07:14:10.014Z,53.94
2023-03-19T07:14:54.971Z,54.96
2023-03-19T07:15:40.182Z,53.96
2023-03-19T07:16:25.135Z,55.96
2023-03-19T07:17:10.397Z,54.96
2023-03-19T07:17:55.305Z,55.96
2023-03-19T07:18:40.259Z,52.96
2023-03-19T07:19:25.527Z,52.96
2023-03-19T07:20:10.395Z,52.96
2023-03-19T07:20:55.195Z,52.96
2023-03-19T07:21:40.755Z,52.96
2023-03-19T07:22:25.542Z,52.96
2023-03-19T07:23:10.507Z,52.96
2023-03-19T07:23:55.650Z,53.94
2023-03-19T07:24:40.503Z,53.96
2023-03-19T07:25:26.431Z,53.96
2023-03-19T07:26:10.917Z,52.96
2023-03-19T07:26:55.768Z,53.96
2023-03-19T07:27:41.149Z,53.96
2023-03-19T07:28:25.842Z,54.96
2023-03-19T07:29:11.038Z,54.96
2023-03-19T07:29:56.215Z,53.96
2023-03-19T07:30:41.147Z,54.96
2023-03-19T07:31:26.050Z,54.96
2023-03-19T07:32:11.189Z,53.96
2023-03-19T07:32:56.168Z,54.96
2023-03-19T07:33:41.410Z,54.96
2023-03-19T07:34:26.284Z,53.96
2023-03-19T07:35:13.782Z,54.94
2023-03-19T07:35:56.584Z,54.96
2023-03-19T07:36:41.754Z,53.96
2023-03-19T07:37:26.831Z,54.96
2023-03-19T07:38:11.416Z,53.96
2023-03-19T07:38:56.879Z,53.96
2023-03-19T07:39:42.916Z,53.96
2023-03-19T07:40:27.206Z,52.96
2023-03-19T07:41:11.671Z,52.96
2023-03-19T07:41:57.010Z,52.96
2023-03-19T07:42:44.967Z,51.95
2023-03-19T07:43:27.078Z,52.96
2023-03-19T07:44:11.760Z,53.96
2023-03-19T07:44:57.020Z,52.96
2023-03-19T07:45:42.033Z,50.96
2023-03-19T07:46:27.172Z,52.96
2023-03-19T07:47:27.911Z,50.96
2023-03-19T07:47:56.932Z,51.96
2023-03-19T07:48:42.323Z,50.96
2023-03-19T07:49:27.278Z,50.96
2023-03-19T07:50:12.386Z,51.96
2023-03-19T07:50:57.164Z,51.96
2023-03-19T07:51:42.265Z,52.96
2023-03-19T07:52:27.374Z,52.96
2023-03-19T07:53:12.872Z,52.96
2023-03-19T07:53:57.807Z,53.94
2023-03-19T07:54:42.674Z,53.96
2023-03-19T07:55:28.017Z,52.96
2023-03-19T07:56:12.558Z,54.96
2023-03-19T07:56:57.938Z,53.96
2023-03-19T07:57:43.011Z,55.96
2023-03-19T07:58:28.524Z,55.96
2023-03-19T07:59:12.911Z,54.96
2023-03-19T07:59:57.884Z,55.96
2023-03-19T08:00:43.251Z,55.96
2023-03-19T08:01:27.849Z,54.96
2023-03-19T08:02:13.305Z,53.96
2023-03-19T08:02:58.068Z,54.96
2023-03-19T08:03:43.193Z,54.94
2023-03-19T08:04:28.412Z,54.96
2023-03-19T08:05:13.851Z,54.96
2023-03-19T08:05:58.337Z,54.96
2023-03-19T08:06:43.245Z,54.96
2023-03-19T08:07:28.605Z,54.96
2023-03-19T08:08:13.862Z,55.96
2023-03-19T08:08:58.519Z,55.96
2023-03-19T08:09:43.486Z,55.96
2023-03-19T08:10:29.642Z,56.96
2023-03-19T08:11:13.625Z,54.96
2023-03-19T08:11:58.675Z,54.96
2023-03-19T08:12:44.105Z,54.96
2023-03-19T08:13:28.778Z,54.96
2023-03-19T08:14:13.912Z,55.96
2023-03-19T08:14:59.156Z,56.96
2023-03-19T08:15:44.019Z,54.96
2023-03-19T08:16:28.999Z,51.95
2023-03-19T08:17:14.201Z,54.96
2023-03-19T08:17:58.843Z,52.94
2023-03-19T08:18:44.464Z,53.96
2023-03-19T08:19:29.524Z,53.96
2023-03-19T08:20:14.281Z,53.96
2023-03-19T08:20:59.110Z,52.96
2023-03-19T08:21:44.482Z,52.96
2023-03-19T08:22:29.644Z,51.96
2023-03-19T08:23:14.397Z,51.96
2023-03-19T08:23:59.337Z,51.96
2023-03-19T08:24:44.952Z,51.96
2023-03-19T08:25:29.901Z,50.96
2023-03-19T08:26:14.876Z,50.96
2023-03-19T08:26:59.512Z,50.96
2023-03-19T08:27:45.108Z,50.95
2023-03-19T08:28:29.890Z,51.96
2023-03-19T08:29:14.884Z,52.94
2023-03-19T08:30:00.205Z,50.96
2023-03-19T08:30:45.416Z,50.96
2023-03-19T08:31:30.242Z,52.96
2023-03-19T08:32:15.059Z,53.96
2023-03-19T08:33:00.273Z,53.96
2023-03-19T08:33:45.813Z,54.96
2023-03-19T08:34:30.290Z,54.96
2023-03-19T08:35:15.431Z,55.96
2023-03-19T08:36:00.465Z,55.96
2023-03-19T08:36:45.400Z,55.96
2023-03-19T08:37:30.660Z,53.96
2023-03-19T08:38:15.613Z,55.96
2023-03-19T08:39:00.619Z,55.96
2023-03-19T08:39:45.629Z,56.96
2023-03-19T08:40:30.781Z,56.94
2023-03-19T08:41:15.840Z,55.96
2023-03-19T08:42:01.271Z,56.96
2023-03-19T08:42:46.095Z,56.96
2023-03-19T08:43:31.389Z,55.94
2023-03-19T08:44:16.049Z,56.96
2023-03-19T08:45:01.164Z,57.96
2023-03-19T08:45:46.784Z,57.96
2023-03-19T08:46:31.274Z,55.96
2023-03-19T08:47:16.393Z,56.96
2023-03-19T08:48:01.349Z,57.96
2023-03-19T08:48:46.510Z,56.96
2023-03-19T08:49:31.737Z,57.96
2023-03-19T08:50:16.691Z,57.96
2023-03-19T08:51:01.733Z,57.96
2023-03-19T08:51:47.040Z,57.96
2023-03-19T08:52:31.683Z,55.96
2023-03-19T08:53:16.844Z,55.96
2023-03-19T08:54:02.032Z,57.96
2023-03-19T08:54:46.550Z,56.96
2023-03-19T08:55:32.049Z,54.96
2023-03-19T08:56:17.004Z,54.96
2023-03-19T08:57:01.821Z,55.96
2023-03-19T08:57:46.980Z,55.96
2023-03-19T08:58:31.626Z,56.96
2023-03-19T08:59:17.197Z,56.94
2023-03-19T09:00:02.150Z,54.96
2023-03-19T09:00:47.463Z,54.96
2023-03-19T09:01:32.380Z,54.96
2023-03-19T09:02:17.221Z,54.96
2023-03-19T09:03:02.438Z,55.96
2023-03-19T09:03:47.527Z,54.96
2023-03-19T09:04:32.605Z,53.94
2023-03-19T09:05:17.839Z,54.96
2023-03-19T09:06:02.881Z,56.96
2023-03-19T09:06:47.932Z,57.96
2023-03-19T09:07:32.808Z,56.96
2023-03-19T09:08:17.484Z,57.96
2023-03-19T09:09:03.341Z,56.96
2023-03-19T09:09:48.118Z,56.96
2023-03-19T09:10:33.640Z,57.96
2023-03-19T09:11:17.716Z,57.96
2023-03-19T09:12:03.271Z,58.94
2023-03-19T09:12:48.639Z,58.96
2023-03-19T09:13:33.268Z,57.96
2023-03-19T09:14:18.282Z,58.96
2023-03-19T09:15:03.172Z,58.96
2023-03-19T09:15:48.161Z,57.94
2023-03-19T09:16:33.148Z,58.96
2023-03-19T09:17:18.428Z,57.96
2023-03-19T09:18:03.498Z,57.96
2023-03-19T09:18:48.869Z,58.96
2023-03-19T09:19:33.778Z,56.96
2023-03-19T09:20:18.793Z,56.96
2023-03-19T09:21:03.857Z,57.96
2023-03-19T09:21:48.577Z,57.96
2023-03-19T09:22:34.057Z,57.96
2023-03-19T09:23:18.896Z,57.96
2023-03-19T09:24:03.725Z,59.96
2023-03-19T09:24:48.961Z,59.96
2023-03-19T09:25:34.476Z,59.96
2023-03-19T09:26:19.197Z,59.96
2023-03-19T09:27:04.178Z,58.96
2023-03-19T09:27:49.281Z,59.96
2023-03-19T09:28:34.343Z,55.96
2023-03-19T09:29:19.160Z,54.97
2023-03-19T09:30:04.714Z,55.96
2023-03-19T09:30:49.755Z,56.96
2023-03-19T09:31:34.770Z,55.96
2023-03-19T09:32:19.276Z,56.96
2023-03-19T09:33:04.709Z,57.96
2023-03-19T09:33:49.892Z,56.96
2023-03-19T09:34:34.751Z,56.96
2023-03-19T09:35:19.934Z,56.96
2023-03-19T09:36:05.126Z,56.96
2023-03-19T09:36:50.063Z,58.96
2023-03-19T09:37:34.816Z,58.96
2023-03-19T09:38:19.575Z,59.96
2023-03-19T09:39:05.186Z,57.94
2023-03-19T09:39:50.038Z,59.96
2023-03-19T09:40:34.885Z,59.96
2023-03-19T09:41:19.805Z,59.96